Time;durP1;ratioP1;P1;durP2;ratioP2;P2;SDS_P1;SDS_P2;PMS_P1;PMS_P2;Temp;Humidity;BMP_temperature;BMP_pressure;BME280_temperature;BME280_humidity;BME280_pressure;Samples;Min_cycle;Max_cycle;Signal;HPM_P1;HPM_P2
2022/07/31 00:02:11;;;;;;;8.23;7.40;;;;;;;14.07;100.00;97298.66;4999639;28;20204;-69
2022/07/31 00:04:41;;;;;;;7.70;7.20;;;;;;;14.08;100.00;97302.94;4986281;28;20238;-69
2022/07/31 00:07:11;;;;;;;8.93;8.23;;;;;;;14.06;100.00;97296.22;4956005;28;20483;-69
2022/07/31 00:09:45;;;;;;;7.70;7.20;;;;;;;13.99;100.00;97301.50;4998583;28;20231;-68
2022/07/31 00:12:22;;;;;;;7.97;7.47;;;;;;;13.97;100.00;97299.03;5000700;28;20384;-69
2022/07/31 00:14:53;;;;;;;8.23;7.70;;;;;;;13.95;100.00;97303.75;4997623;28;20249;-66
2022/07/31 00:17:24;;;;;;;7.93;7.37;;;;;;;13.85;100.00;97295.34;5004002;28;20361;-69
2022/07/31 00:19:57;;;;;;;7.97;7.37;;;;;;;13.82;100.00;97291.22;4989418;28;20720;-66
2022/07/31 00:22:28;;;;;;;7.43;7.03;;;;;;;13.84;100.00;97297.19;4964708;28;20208;-69
2022/07/31 00:24:56;;;;;;;7.93;7.43;;;;;;;13.83;100.00;97295.56;5003278;28;20295;-66
2022/07/31 00:27:25;;;;;;;8.37;7.43;;;;;;;13.77;100.00;97300.88;5005766;28;20886;-68
2022/07/31 00:29:53;;;;;;;8.53;7.77;;;;;;;13.84;100.00;97302.53;5003466;28;20205;-67
2022/07/31 00:32:26;;;;;;;8.67;8.17;;;;;;;13.89;100.00;97302.75;5004067;28;20471;-69
2022/07/31 00:34:54;;;;;;;8.33;7.83;;;;;;;13.69;100.00;97293.88;4989660;28;20231;-66
2022/07/31 00:37:24;;;;;;;7.53;7.03;;;;;;;13.59;100.00;97304.91;4959500;28;20314;-68
2022/07/31 00:39:53;;;;;;;7.40;7.00;;;;;;;13.73;100.00;97306.59;5006043;28;20623;-67
2022/07/31 00:42:24;;;;;;;7.73;7.23;;;;;;;13.75;100.00;97301.88;5002833;28;20329;-68
2022/07/31 00:44:53;;;;;;;8.17;7.67;;;;;;;13.84;100.00;97310.53;5002962;28;20221;-67
2022/07/31 00:47:21;;;;;;;7.83;7.23;;;;;;;13.69;100.00;97300.03;5006032;28;20461;-68
2022/07/31 00:49:53;;;;;;;8.37;7.87;;;;;;;13.62;100.00;97309.81;5003172;28;20235;-66
2022/07/31 00:52:25;;;;;;;7.73;7.23;;;;;;;13.60;100.00;97309.19;4958175;28;22138;-68
2022/07/31 00:54:53;;;;;;;7.63;7.13;;;;;;;13.61;100.00;97302.84;5004231;28;20664;-67
2022/07/31 00:57:22;;;;;;;8.40;7.90;;;;;;;13.65;100.00;97308.63;5000801;28;20208;-68
2022/07/31 00:59:50;;;;;;;7.90;7.40;;;;;;;13.58;100.00;97298.78;5006315;28;20555;-67
2022/07/31 01:02:18;;;;;;;7.73;7.20;;;;;;;13.44;100.00;97305.06;5001627;28;20389;-68
2022/07/31 01:04:47;;;;;;;9.40;8.63;;;;;;;13.32;100.00;97302.94;5004563;28;20236;-67
2022/07/31 01:07:15;;;;;;;8.30;7.77;;;;;;;13.43;100.00;97300.75;4983774;28;20463;-68
2022/07/31 01:09:52;;;;;;;8.73;8.13;;;;;;;13.47;100.00;97296.69;4962808;28;20216;-69
2022/07/31 01:12:23;;;;;;;8.50;8.00;;;;;;;13.36;100.00;97300.72;5003336;28;20831;-69
2022/07/31 01:14:56;;;;;;;8.27;7.67;;;;;;;13.31;100.00;97305.81;5004528;28;20220;-67
2022/07/31 01:17:30;;;;;;;8.93;8.43;;;;;;;13.27;100.00;97302.72;5001836;28;20368;-68
2022/07/31 01:20:01;;;;;;;8.60;7.97;;;;;;;13.28;100.00;97299.03;5004399;28;20204;-67
2022/07/31 01:22:48;;;;;;;8.50;7.80;;;;;;;13.03;100.00;97302.19;4986907;28;20660;-69
2022/07/31 01:25:33;;;;;;;8.47;7.97;;;;;;;13.06;100.00;97308.97;4968830;28;20540;-68
2022/07/31 01:28:09;;;;;;;8.03;7.47;;;;;;;13.12;100.00;97292.22;5004632;28;20274;-66
2022/07/31 01:30:43;;;;;;;8.93;8.33;;;;;;;13.06;100.00;97295.66;5005171;28;20200;-69
2022/07/31 01:33:15;;;;;;;8.00;7.50;;;;;;;13.11;100.00;97295.88;5000497;28;20263;-69
2022/07/31 01:35:51;;;;;;;8.50;8.00;;;;;;;13.10;100.00;97296.09;5007770;28;20205;-66
2022/07/31 01:38:26;;;;;;;8.43;7.87;;;;;;;13.01;100.00;97290.13;4944389;28;21165;-68
2022/07/31 01:40:58;;;;;;;8.43;7.93;;;;;;;13.09;100.00;97297.94;5000876;28;20223;-65
2022/07/31 01:43:31;;;;;;;9.60;8.80;;;;;;;13.08;100.00;97304.28;5000563;28;20228;-68
2022/07/31 01:46:35;;;;;;;9.03;8.53;;;;;;;13.10;100.00;97296.09;4989093;28;20632;-65
2022/07/31 01:49:09;;;;;;;8.93;8.23;;;;;;;13.10;100.00;97296.09;5002550;28;20808;-67
2022/07/31 01:51:41;;;;;;;8.87;8.27;;;;;;;12.95;100.00;97299.69;5004901;28;20258;-65
2022/07/31 01:54:12;;;;;;;8.87;8.10;;;;;;;12.99;100.00;97306.25;4932347;28;21153;-66
2022/07/31 01:56:41;;;;;;;8.37;7.70;;;;;;;12.93;100.00;97304.38;5003712;28;20208;-68
2022/07/31 01:59:14;;;;;;;9.40;8.53;;;;;;;12.85;100.00;97296.56;4948720;28;20633;-65
2022/07/31 02:01:52;;;;;;;8.70;8.10;;;;;;;12.90;100.00;97299.47;5003848;28;20749;-66
2022/07/31 02:04:23;;;;;;;8.30;7.70;;;;;;;12.90;100.00;97296.81;4984431;28;20668;-65
2022/07/31 02:06:55;;;;;;;8.83;8.23;;;;;;;12.88;100.00;97298.84;5003857;28;20338;-67
2022/07/31 02:09:26;;;;;;;8.53;7.93;;;;;;;12.86;100.00;97306.19;4980914;28;20693;-66
2022/07/31 02:11:56;;;;;;;8.73;8.23;;;;;;;12.81;100.00;97298.00;5003684;28;20750;-66
2022/07/31 02:14:25;;;;;;;9.43;8.70;;;;;;;12.80;100.00;97293.69;4950975;28;21285;-67
2022/07/31 02:16:55;;;;;;;8.97;8.37;;;;;;;12.75;100.00;97302.25;5002420;28;22352;-67
2022/07/31 02:19:27;;;;;;;8.33;7.83;;;;;;;12.69;100.00;97303.84;4998769;28;20209;-66
2022/07/31 02:22:07;;;;;;;8.23;7.63;;;;;;;12.72;100.00;97306.13;5003918;28;20209;-68
2022/07/31 02:24:38;;;;;;;8.70;8.10;;;;;;;12.66;100.00;97309.53;5002092;28;20224;-67
2022/07/31 02:27:07;;;;;;;8.33;7.73;;;;;;;12.62;100.00;97305.63;4981240;28;20239;-67
2022/07/31 02:29:57;;;;;;;8.77;8.17;;;;;;;12.58;100.00;97304.38;4960783;28;20216;-67
2022/07/31 02:32:27;;;;;;;7.70;7.20;;;;;;;12.52;100.00;97299.84;5002315;28;20878;-67
2022/07/31 02:34:57;;;;;;;8.37;7.77;;;;;;;12.50;100.00;97304.53;5004893;28;20271;-67
2022/07/31 02:37:27;;;;;;;8.57;7.97;;;;;;;12.49;100.00;97309.00;5004599;28;20397;-67
2022/07/31 02:39:58;;;;;;;7.50;7.00;;;;;;;12.45;100.00;97303.28;5006136;28;20197;-66
2022/07/31 02:42:26;;;;;;;8.13;7.63;;;;;;;12.45;100.00;97299.78;4980981;28;20237;-67
2022/07/31 02:44:55;;;;;;;8.20;7.70;;;;;;;12.39;100.00;97293.41;4963875;28;20271;-68
2022/07/31 02:47:24;;;;;;;8.83;8.17;;;;;;;12.35;100.00;97301.94;4999188;28;20276;-66
2022/07/31 02:50:02;;;;;;;8.67;8.07;;;;;;;12.31;100.00;97296.19;5004977;28;20208;-68
2022/07/31 02:52:31;;;;;;;8.67;8.10;;;;;;;12.33;100.00;97286.22;5002460;28;20201;-68
2022/07/31 02:55:01;;;;;;;9.07;8.47;;;;;;;12.33;100.00;97288.88;5006934;28;20224;-67
2022/07/31 02:57:29;;;;;;;9.03;8.43;;;;;;;12.39;100.00;97293.41;4980512;28;20496;-68
2022/07/31 02:59:59;;;;;;;8.03;7.50;;;;;;;12.35;100.00;97289.50;5006715;28;20346;-67
2022/07/31 03:02:31;;;;;;;8.63;7.80;;;;;;;12.35;100.00;97288.66;4962795;28;20216;-68
2022/07/31 03:05:07;;;;;;;8.70;7.90;;;;;;;12.30;100.00;97286.59;5005001;28;20737;-66
2022/07/31 03:07:40;;;;;;;8.77;8.10;;;;;;;12.20;100.00;97283.44;5004724;28;20274;-68
2022/07/31 03:10:11;;;;;;;8.90;8.30;;;;;;;12.09;100.00;97288.25;5006153;28;20297;-67
2022/07/31 03:12:50;;;;;;;9.00;8.40;;;;;;;12.22;100.00;97284.91;4982014;28;20341;-68
2022/07/31 03:15:20;;;;;;;8.33;7.73;;;;;;;12.13;100.00;97278.09;5000265;28;20232;-65
2022/07/31 03:17:52;;;;;;;8.57;8.00;;;;;;;12.11;100.00;97269.47;4932914;28;21086;-68
2022/07/31 03:20:23;;;;;;;9.07;8.47;;;;;;;12.12;100.00;97273.75;5001322;28;20767;-67
2022/07/31 03:22:52;;;;;;;9.37;8.57;;;;;;;12.15;100.00;97268.09;5005464;28;20231;-69
2022/07/31 03:25:22;;;;;;;9.00;8.27;;;;;;;12.08;100.00;97273.34;5000463;28;20445;-68
2022/07/31 03:27:53;;;;;;;8.20;7.70;;;;;;;12.07;100.00;97271.72;4983434;28;20736;-66
2022/07/31 03:30:24;;;;;;;9.43;8.33;;;;;;;12.06;100.00;97275.38;4993897;28;20534;-67
2022/07/31 03:32:56;;;;;;;8.57;7.97;;;;;;;12.08;100.00;97277.81;4959154;28;20213;-67
2022/07/31 03:35:26;;;;;;;8.87;8.27;;;;;;;12.05;100.00;97272.91;4991677;28;20319;-69
2022/07/31 03:37:57;;;;;;;8.73;8.13;;;;;;;11.90;100.00;97276.41;5001720;28;20428;-67
2022/07/31 03:40:27;;;;;;;8.80;8.20;;;;;;;11.96;100.00;97291.59;4997500;28;20988;-69
2022/07/31 03:42:56;;;;;;;9.23;8.53;;;;;;;11.98;100.00;97286.09;5004825;28;20989;-67
2022/07/31 03:45:29;;;;;;;8.83;8.13;;;;;;;11.91;100.00;97286.03;4965041;28;20240;-68
2022/07/31 03:47:57;;;;;;;8.80;8.20;;;;;;;11.91;100.00;97283.38;4958973;28;20260;-67
2022/07/31 03:50:29;;;;;;;8.40;7.80;;;;;;;11.97;100.00;97279.94;4997464;28;20586;-68
2022/07/31 03:53:02;;;;;;;9.17;8.47;;;;;;;11.90;100.00;97286.22;5003966;28;20209;-67
2022/07/31 03:55:34;;;;;;;9.00;8.40;;;;;;;11.90;100.00;97283.56;5005510;28;20248;-69
2022/07/31 03:58:08;;;;;;;8.70;8.10;;;;;;;11.86;100.00;97286.59;4992808;28;20200;-67
2022/07/31 04:00:36;;;;;;;8.67;8.07;;;;;;;11.92;100.00;97289.50;5005631;28;20317;-70
2022/07/31 04:03:10;;;;;;;8.80;8.20;;;;;;;11.97;100.00;97284.47;4966209;28;20319;-67
2022/07/31 04:05:43;;;;;;;8.40;7.70;;;;;;;11.94;100.00;97285.66;4954011;28;20797;-68
2022/07/31 04:08:14;;;;;;;8.10;7.70;;;;;;;11.92;100.00;97284.19;5002165;28;20322;-66
2022/07/31 04:10:44;;;;;;;8.37;7.87;;;;;;;12.02;100.00;97284.72;5005200;28;20290;-67
2022/07/31 04:13:12;;;;;;;8.57;8.03;;;;;;;12.03;100.00;97286.38;5003890;28;20213;-66
2022/07/31 04:15:41;;;;;;;8.80;8.30;;;;;;;11.95;100.00;97286.47;5000301;28;20201;-66
2022/07/31 04:18:12;;;;;;;8.77;8.17;;;;;;;11.98;100.00;97291.41;5004676;28;20265;-66
2022/07/31 04:20:48;;;;;;;8.80;8.30;;;;;;;11.94;100.00;97292.81;4957395;28;20578;-68
2022/07/31 04:23:19;;;;;;;9.30;8.60;;;;;;;11.92;100.00;97300.13;5001386;28;20302;-68
2022/07/31 04:25:53;;;;;;;8.40;7.90;;;;;;;11.98;100.00;97291.41;5002538;28;20248;-68
2022/07/31 04:28:23;;;;;;;8.27;7.77;;;;;;;12.08;100.00;97297.25;5001893;28;20282;-67
2022/07/31 04:30:51;;;;;;;8.27;7.67;;;;;;;12.27;100.00;97297.59;5004787;28;20912;-68
2022/07/31 04:33:19;;;;;;;9.00;8.40;;;;;;;12.27;100.00;97301.09;5003178;28;20209;-68
2022/07/31 04:35:54;;;;;;;9.50;8.90;;;;;;;12.53;100.00;97299.66;4959706;28;21921;-67
2022/07/31 04:38:26;;;;;;;9.63;9.03;;;;;;;12.73;100.00;97296.28;4999734;28;20208;-67
2022/07/31 04:40:55;;;;;;;9.47;8.77;;;;;;;12.87;100.00;97291.88;4976851;28;20299;-67
2022/07/31 04:43:29;;;;;;;9.47;8.87;;;;;;;13.01;100.00;97293.59;4973299;28;21062;-69
2022/07/31 04:45:57;;;;;;;8.67;8.17;;;;;;;13.13;100.00;97291.19;5004301;28;20209;-67
2022/07/31 04:48:27;;;;;;;8.53;7.93;;;;;;;13.20;100.00;97293.88;4984226;28;20310;-67
2022/07/31 04:50:58;;;;;;;9.50;8.90;;;;;;;13.36;100.00;97294.56;4991498;28;20251;-65
2022/07/31 04:53:27;;;;;;;8.53;8.03;;;;;;;13.48;100.00;97295.69;4981998;28;20221;-68
2022/07/31 04:58:37;;;;;;;9.37;8.67;;;;;;;13.62;100.00;97299.16;4972550;28;20701;-68
2022/07/31 05:01:08;;;;;;;9.37;8.67;;;;;;;13.61;100.00;97305.53;5001361;28;20273;-68
2022/07/31 05:03:37;;;;;;;10.07;9.37;;;;;;;13.75;100.00;97301.06;5002504;28;20224;-68
2022/07/31 05:06:15;;;;;;;9.57;8.97;;;;;;;13.70;100.00;97292.84;4976829;28;20232;-67
2022/07/31 05:08:43;;;;;;;9.27;8.70;;;;;;;13.71;100.00;97302.47;4955057;28;20262;-68
2022/07/31 05:11:24;;;;;;;10.00;9.40;;;;;;;13.81;100.00;97305.56;4977415;28;20720;-67
2022/07/31 05:13:56;;;;;;;10.00;9.30;;;;;;;13.85;100.00;97306.00;5001228;28;20756;-67
2022/07/31 05:16:28;;;;;;;8.97;8.40;;;;;;;13.97;100.00;97306.22;5003402;28;20278;-67
2022/07/31 05:18:57;;;;;;;9.77;9.17;;;;;;;14.33;100.00;97310.34;4994635;28;20204;-65
2022/07/31 05:21:30;;;;;;;8.90;8.33;;;;;;;14.65;100.00;97307.06;4992697;28;21190;-69
2022/07/31 05:24:03;;;;;;;8.97;8.47;;;;;;;14.84;100.00;97306.25;4965093;28;20335;-67
2022/07/31 05:26:38;;;;;;;9.50;8.90;;;;;;;14.98;100.00;97307.03;4976090;28;20219;-67
2022/07/31 05:29:06;;;;;;;8.87;8.37;;;;;;;15.26;100.00;97303.25;4974330;28;20298;-69
2022/07/31 05:31:37;;;;;;;8.63;8.10;;;;;;;15.51;100.00;97299.03;5002050;28;20236;-68
2022/07/31 05:34:25;;;;;;;8.50;8.00;;;;;;;15.91;100.00;97297.00;5001196;28;20221;-68
2022/07/31 05:37:00;;;;;;;8.23;7.63;;;;;;;16.20;100.00;97297.41;4975566;28;20204;-66
2022/07/31 05:39:29;;;;;;;8.33;7.83;;;;;;;16.39;100.00;97293.97;4972044;28;20574;-67
2022/07/31 05:41:57;;;;;;;7.73;7.33;;;;;;;16.53;100.00;97290.13;4968631;28;20291;-65
2022/07/31 05:44:25;;;;;;;8.20;7.60;;;;;;;16.72;100.00;97291.00;5000660;28;20310;-66
2022/07/31 05:47:07;;;;;;;7.77;7.27;;;;;;;16.77;100.00;97285.78;4998452;28;20219;-70
2022/07/31 05:49:38;;;;;;;7.70;7.20;;;;;;;16.88;100.00;97294.94;5007073;28;20212;-64
2022/07/31 05:52:10;;;;;;;7.87;7.17;;;;;;;16.70;100.00;97290.41;5004826;28;20204;-66
2022/07/31 05:54:44;;;;;;;7.07;6.67;;;;;;;16.75;100.00;97284.41;4992265;28;20221;-68
2022/07/31 05:57:13;;;;;;;8.10;7.53;;;;;;;16.73;100.00;97284.59;4967602;28;20207;-63
2022/07/31 06:00:05;;;;;;;7.90;7.40;;;;;;;16.73;100.00;97289.16;5002334;28;20235;-65
2022/07/31 06:02:36;;;;;;;8.43;7.83;;;;;;;16.79;100.00;97298.97;4983198;28;20207;-64
2022/07/31 06:05:04;;;;;;;7.93;7.47;;;;;;;16.86;100.00;97290.88;5009203;28;20381;-65
2022/07/31 06:07:35;;;;;;;8.20;7.70;;;;;;;16.54;100.00;97282.94;5008794;28;20542;-66
2022/07/31 06:10:04;;;;;;;8.87;8.17;;;;;;;16.74;100.00;97291.59;4972814;28;20212;-67
2022/07/31 06:12:35;;;;;;;7.53;6.90;;;;;;;16.93;100.00;97299.66;4966392;28;20815;-67
2022/07/31 06:15:04;;;;;;;7.90;7.30;;;;;;;16.86;100.00;97293.56;4995323;28;20228;-65
2022/07/31 06:17:34;;;;;;;7.37;6.97;;;;;;;17.17;100.00;97299.81;5008256;28;20258;-66
2022/07/31 06:20:14;;;;;;;7.80;7.40;;;;;;;17.05;100.00;97297.91;4973006;28;20211;-67
2022/07/31 06:22:44;;;;;;;7.67;7.17;;;;;;;17.03;100.00;97305.31;5006215;28;20262;-66
2022/07/31 06:25:15;;;;;;;8.13;7.50;;;;;;;17.19;100.00;97300.41;5006917;28;20361;-67
2022/07/31 06:27:45;;;;;;;8.00;7.50;;;;;;;17.21;100.00;97290.28;4965213;28;20233;-67
2022/07/31 06:30:26;;;;;;;7.60;7.20;;;;;;;17.08;100.00;97304.66;5006654;28;20266;-66
2022/07/31 06:32:54;;;;;;;8.70;8.10;;;;;;;17.40;100.00;97296.44;5006233;28;20404;-66
2022/07/31 06:35:26;;;;;;;8.27;7.60;;;;;;;17.64;100.00;97307.28;4977322;28;20246;-64
2022/07/31 06:37:57;;;;;;;8.03;7.40;;;;;;;17.95;100.00;97310.78;5007017;28;20513;-67
2022/07/31 06:40:28;;;;;;;8.50;7.90;;;;;;;18.20;100.00;97307.16;5009722;28;20994;-66
2022/07/31 06:42:56;;;;;;;8.23;7.73;;;;;;;18.42;100.00;97310.09;4961970;28;20388;-67
2022/07/31 06:45:25;;;;;;;7.20;6.70;;;;;;;18.54;100.00;97311.97;4980000;28;20265;-67
2022/07/31 06:48:18;;;;;;;7.57;7.03;;;;;;;18.89;100.00;97319.22;5000680;28;20224;-68
2022/07/31 06:50:47;;;;;;;7.33;6.93;;;;;;;18.96;100.00;97319.91;4974266;28;20472;-68
2022/07/31 06:53:21;;;;;;;8.00;7.53;;;;;;;18.97;100.00;97318.06;5002457;28;20331;-64
2022/07/31 06:55:49;;;;;;;7.40;7.00;;;;;;;19.13;100.00;97309.28;5006648;28;20288;-66
2022/07/31 06:58:18;;;;;;;8.40;7.70;;;;;;;19.36;100.00;97313.00;4959826;28;20221;-65
2022/07/31 07:00:54;;;;;;;7.63;7.13;;;;;;;19.05;100.00;97315.84;5002530;28;20219;-65
2022/07/31 07:03:22;;;;;;;7.50;7.00;;;;;;;19.46;100.00;97317.72;5003578;28;20414;-64
2022/07/31 07:05:51;;;;;;;7.17;6.77;;;;;;;19.78;100.00;97303.84;4991648;28;20208;-66
2022/07/31 07:08:20;;;;;;;7.43;6.97;;;;;;;19.97;100.00;97307.16;5002658;28;20236;-66
2022/07/31 07:10:54;;;;;;;7.10;6.70;;;;;;;19.58;100.00;97306.94;5006729;28;20205;-64
2022/07/31 07:13:25;;;;;;;6.10;5.70;;;;;;;19.81;100.00;97314.09;4960780;28;20216;-67
2022/07/31 07:16:15;;;;;;;6.00;5.70;;;;;;;19.88;100.00;97298.63;4980112;28;20674;-64
2022/07/31 07:18:44;;;;;;;5.77;5.47;;;;;;;20.18;100.00;97307.53;5004897;28;20257;-65
2022/07/31 07:21:13;;;;;;;5.43;5.13;;;;;;;20.06;100.00;97310.28;4966111;28;20204;-65
2022/07/31 07:23:46;;;;;;;6.30;5.90;;;;;;;20.05;100.00;97308.66;5006892;28;20736;-66
2022/07/31 07:26:17;;;;;;;6.17;5.77;;;;;;;19.99;100.00;97310.44;4992610;28;20965;-68
2022/07/31 07:28:55;;;;;;;6.63;6.13;;;;;;;19.88;100.00;97309.41;4965522;28;20226;-67
2022/07/31 07:31:27;;;;;;;5.77;5.37;;;;;;;19.72;100.00;97305.63;5001475;28;20422;-68
2022/07/31 07:33:59;;;;;;;6.13;5.73;;;;;;;19.83;100.00;97311.19;4983948;28;20601;-66
2022/07/31 07:36:30;;;;;;;7.70;5.10;;;;;;;20.07;100.00;97310.03;4998075;28;20216;-67
2022/07/31 07:39:02;;;;;;;4.70;4.50;;;;;;;20.41;100.00;97306.56;4991853;28;20212;-66
2022/07/31 07:41:30;;;;;;;5.70;5.40;;;;;;;20.53;100.00;97309.97;4991268;28;20208;-67
2022/07/31 07:43:59;;;;;;;5.87;5.47;;;;;;;20.60;100.00;97311.69;4969769;28;20238;-67
2022/07/31 07:46:32;;;;;;;6.00;5.60;;;;;;;20.87;100.00;97311.03;5005039;28;21369;-65
2022/07/31 07:49:03;;;;;;;6.00;5.60;;;;;;;21.24;100.00;97305.06;4986868;28;20347;-67
2022/07/31 07:51:32;;;;;;;6.27;5.77;;;;;;;21.19;100.00;97308.50;5005674;28;20331;-67
2022/07/31 07:54:11;;;;;;;5.60;5.30;;;;;;;20.95;100.00;97307.91;4987743;28;20469;-65
2022/07/31 07:56:44;;;;;;;5.97;5.67;;;;;;;20.86;100.00;97299.47;4994010;28;20814;-66
2022/07/31 07:59:12;;;;;;;5.30;5.00;;;;;;;21.21;100.00;97300.19;4968270;28;22323;-66
2022/07/31 08:01:42;;;;;;;5.67;5.27;;;;;;;21.60;100.00;97300.09;5006766;28;20202;-64
2022/07/31 08:04:10;;;;;;;5.17;4.87;;;;;;;21.53;100.00;97294.09;4983820;28;20274;-64
2022/07/31 08:06:38;;;;;;;6.13;5.73;;;;;;;21.18;100.00;97293.41;4988114;28;20218;-67
2022/07/31 08:09:08;;;;;;;7.30;6.83;;;;;;;21.28;100.00;97295.41;4977089;28;20232;-65
2022/07/31 08:11:39;;;;;;;5.43;5.13;;;;;;;21.22;100.00;97296.44;4978192;28;20286;-66
2022/07/31 08:14:10;;;;;;;5.60;5.20;;;;;;;21.04;100.00;97289.47;5003446;28;20228;-67
2022/07/31 08:16:42;;;;;;;5.47;5.07;;;;;;;21.49;100.00;97291.09;4963504;28;20216;-68
2022/07/31 08:19:13;;;;;;;6.10;5.60;;;;;;;21.97;100.00;97288.66;4953369;28;20197;-67
2022/07/31 08:21:41;;;;;;;6.30;5.90;;;;;;;21.87;100.00;97287.72;5003380;28;20227;-67
2022/07/31 08:24:11;;;;;;;6.10;5.70;;;;;;;21.97;100.00;97282.44;4971838;28;20231;-66
2022/07/31 08:29:42;;;;;;;4.73;4.43;;;;;;;22.05;100.00;97284.69;5008725;28;20224;-66
2022/07/31 08:32:12;;;;;;;5.23;4.80;;;;;;;21.90;100.00;97276.44;4972337;28;20239;-64
2022/07/31 08:34:51;;;;;;;5.03;4.73;;;;;;;22.36;100.00;97271.44;5006101;28;20624;-64
2022/07/31 08:37:31;;;;;;;5.20;5.00;;;;;;;22.84;100.00;97274.19;5003376;28;20349;-66
2022/07/31 08:40:36;;;;;;;4.80;4.50;;;;;;;22.42;100.00;97264.19;4989819;28;20757;-66
2022/07/31 08:43:38;;;;;;;4.80;4.47;;;;;;;22.42;100.00;97266.88;4987635;28;20215;-67
2022/07/31 08:46:45;;;;;;;4.90;4.60;;;;;;;22.40;100.00;97266.34;5006661;28;20207;-66
2022/07/31 08:49:57;;;;;;;4.90;4.60;;;;;;;22.30;100.00;97263.56;4968536;28;20235;-65
2022/07/31 08:52:59;;;;;;;4.10;3.90;;;;;;;21.77;100.00;97264.16;5002477;28;20704;-64
2022/07/31 08:55:59;;;;;;;4.77;4.40;;;;;;;21.59;100.00;97271.53;4979694;28;20562;-66
2022/07/31 09:15:28;;;;;;;4.23;4.00;;;;;;;21.78;100.00;97253.13;4962561;28;20512;-67
2022/07/31 09:18:20;;;;;;;4.20;3.87;;;;;;;21.79;100.00;97259.38;4968127;28;20224;-62
2022/07/31 09:21:17;;;;;;;6.10;4.13;;;;;;;21.84;100.00;97245.91;4914441;28;20323;-66
2022/07/31 09:24:36;;;;;;;4.20;4.00;;;;;;;22.07;100.00;97241.25;4962254;28;20291;-65
2022/07/31 09:27:43;;;;;;;3.90;3.60;;;;;;;22.01;98.88;97240.41;4938543;28;20608;-64
2022/07/31 09:30:47;;;;;;;5.03;4.70;;;;;;;22.03;99.44;97243.66;4963665;28;20345;-66
2022/07/31 09:33:50;;;;;;;4.60;4.30;;;;;;;22.20;92.18;97232.75;4962838;28;20485;-66
2022/07/31 09:36:51;;;;;;;4.20;4.00;;;;;;;22.40;99.09;97231.25;4950700;28;20320;-66
2022/07/31 09:39:56;;;;;;;4.33;4.13;;;;;;;22.37;94.41;97221.78;4953879;28;20718;-65
2022/07/31 09:43:00;;;;;;;4.37;3.97;;;;;;;22.96;94.27;97217.28;4962459;28;20306;-65
2022/07/31 09:46:26;;;;;;;4.70;4.30;;;;;;;23.14;91.59;97215.19;4965488;28;20595;-63
2022/07/31 09:49:42;;;;;;;4.33;4.13;;;;;;;23.10;80.32;97219.47;4960519;28;20836;-67
2022/07/31 09:52:43;;;;;;;3.87;3.67;;;;;;;23.09;83.80;97221.38;4930746;28;20886;-67
2022/07/31 09:55:43;;;;;;;4.53;4.17;;;;;;;23.20;80.76;97213.31;4961004;28;20694;-66
2022/07/31 09:58:51;;;;;;;4.13;3.83;;;;;;;23.10;81.28;97212.19;4949400;28;21025;-66
2022/07/31 11:42:33;;;;;;;3.03;2.10;;;;;;;26.03;40.85;97107.16;4988197;28;20827;-63
2022/07/31 11:45:30;;;;;;;2.67;2.47;;;;;;;26.38;40.94;97105.19;4960626;28;20526;-64
2022/07/31 11:48:32;;;;;;;2.23;2.13;;;;;;;27.51;39.64;97087.69;5002928;28;20223;-65
2022/07/31 11:51:38;;;;;;;2.63;2.43;;;;;;;27.41;39.03;97094.06;5006075;28;20266;-64
2022/07/31 11:54:37;;;;;;;2.40;2.30;;;;;;;27.11;38.41;97093.41;5006306;28;20279;-65
2022/07/31 11:57:44;;;;;;;2.30;2.23;;;;;;;26.96;40.63;97091.72;4984580;28;20603;-65
2022/07/31 12:01:18;;;;;;;3.70;2.50;;;;;;;27.18;40.50;97088.41;4950479;28;20567;-67
2022/07/31 12:04:53;;;;;;;2.57;2.20;;;;;;;26.57;40.04;97091.66;5008478;28;20251;-67
2022/07/31 12:08:27;;;;;;;2.70;2.60;;;;;;;26.54;41.04;97069.72;5003970;28;20642;-68
2022/07/31 12:12:00;;;;;;;2.60;2.40;;;;;;;26.39;40.59;97082.34;5005518;28;20289;-63
2022/07/31 12:15:32;;;;;;;2.50;2.40;;;;;;;26.15;40.83;97079.63;5003146;28;20235;-66
2022/07/31 12:18:40;;;;;;;2.10;2.00;;;;;;;26.45;39.60;97074.97;5002403;28;20274;-62
2022/07/31 12:21:36;;;;;;;2.83;2.63;;;;;;;27.08;38.34;97062.19;5004886;28;20540;-64
2022/07/31 12:24:30;;;;;;;2.40;2.30;;;;;;;27.60;37.53;97050.53;5005564;28;20228;-64
2022/07/31 12:27:30;;;;;;;2.83;2.13;;;;;;;27.52;38.50;97049.28;4999444;28;20257;-62
2022/07/31 12:31:04;;;;;;;1.60;1.50;;;;;;;27.40;36.99;97047.00;4985347;28;20808;-65
2022/07/31 12:34:10;;;;;;;3.10;1.83;;;;;;;27.33;36.28;97059.38;5009815;28;20223;-67
2022/07/31 12:37:20;;;;;;;1.80;1.70;;;;;;;27.95;36.29;97053.72;5014217;28;20215;-64
2022/07/31 12:40:32;;;;;;;2.13;2.00;;;;;;;28.49;34.06;97047.78;4977905;28;20707;-65
2022/07/31 12:43:41;;;;;;;1.97;1.70;;;;;;;31.70;30.35;97041.94;5006082;28;20219;-65
2022/07/31 12:46:46;;;;;;;2.20;2.00;;;;;;;33.40;28.18;97046.97;5005630;28;20224;-64
2022/07/31 12:49:52;;;;;;;2.20;1.90;;;;;;;36.06;25.43;97033.38;5005885;28;20760;-65
2022/07/31 12:52:57;;;;;;;3.10;1.53;;;;;;;37.11;23.02;97043.25;4987472;28;20615;-63
2022/07/31 12:55:59;;;;;;;1.70;1.70;;;;;;;38.55;22.38;97043.41;5004982;28;20224;-62
2022/07/31 12:59:01;;;;;;;1.30;1.30;;;;;;;32.96;25.36;97052.81;5002537;28;20239;-62
2022/07/31 13:15:02;;;;;;;1.40;1.40;;;;;;;33.47;25.01;97022.53;5004822;28;20298;-65
2022/07/31 13:18:05;;;;;;;1.47;1.37;;;;;;;31.61;27.90;97019.22;5001042;28;20212;-64
2022/07/31 13:21:21;;;;;;;1.70;1.60;;;;;;;31.53;28.16;97017.31;4983939;28;20326;-63
2022/07/31 13:24:28;;;;;;;2.27;1.50;;;;;;;35.44;24.17;97025.47;5005045;28;20490;-63
2022/07/31 13:27:36;;;;;;;1.50;1.40;;;;;;;36.36;21.76;97018.31;4999512;28;20219;-66
2022/07/31 13:30:40;;;;;;;1.50;1.40;;;;;;;32.33;25.67;97021.44;5003942;28;20254;-65
2022/07/31 13:33:43;;;;;;;1.50;1.43;;;;;;;32.39;26.71;97008.31;4980458;28;20695;-65
2022/07/31 13:37:00;;;;;;;1.77;1.67;;;;;;;36.50;24.20;97012.31;4983308;28;20466;-64
2022/07/31 13:40:01;;;;;;;1.83;1.73;;;;;;;38.47;20.46;97020.41;5004878;28;21006;-65
2022/07/31 13:43:06;;;;;;;1.90;1.80;;;;;;;39.22;20.93;97022.53;4998074;28;20219;-64
2022/07/31 13:46:14;;;;;;;1.50;1.40;;;;;;;43.80;18.63;97005.75;5003382;28;20593;-66
2022/07/31 13:49:16;;;;;;;1.50;1.40;;;;;;;42.41;17.59;97001.94;5004627;28;20210;-65
2022/07/31 13:52:22;;;;;;;1.60;1.50;;;;;;;36.97;21.44;97001.53;4988807;28;20214;-64
2022/07/31 13:55:22;;;;;;;2.10;1.90;;;;;;;38.64;21.93;97000.47;5001699;28;20277;-62
2022/07/31 13:58:32;;;;;;;2.80;2.70;;;;;;;40.36;18.60;97001.84;4961463;28;20216;-62
2022/07/31 14:02:12;;;;;;;2.37;2.17;;;;;;;39.60;20.41;97003.19;4997175;28;20308;-63
2022/07/31 14:05:30;;;;;;;1.80;1.70;;;;;;;37.61;20.69;96996.47;5006210;28;20247;-64
2022/07/31 14:08:38;;;;;;;5.40;2.13;;;;;;;34.37;25.01;97005.44;4985521;28;20232;-62
2022/07/31 14:11:39;;;;;;;1.90;1.80;;;;;;;32.80;26.89;97005.94;4960180;28;20431;-63
2022/07/31 14:14:41;;;;;;;2.30;2.20;;;;;;;34.39;25.35;97007.84;4999957;28;20602;-63
2022/07/31 14:17:42;;;;;;;4.63;4.27;;;;;;;32.90;26.72;96992.66;5001674;28;20981;-66
2022/07/31 14:20:46;;;;;;;1.97;1.87;;;;;;;33.31;25.96;96983.91;5002390;28;20764;-66
2022/07/31 14:23:40;;;;;;;2.23;2.13;;;;;;;32.63;27.69;96997.50;4985369;28;20227;-64
2022/07/31 14:26:42;;;;;;;4.00;2.00;;;;;;;31.79;28.96;97008.25;4958156;28;20806;-63
2022/07/31 14:29:43;;;;;;;2.03;1.83;;;;;;;34.17;25.57;97009.91;5003945;28;20409;-65
2022/07/31 14:32:52;;;;;;;2.13;1.93;;;;;;;34.20;25.92;97007.31;4981673;28;20330;-62
2022/07/31 14:35:55;;;;;;;2.33;2.23;;;;;;;37.25;23.78;97001.31;4989349;28;20380;-64
2022/07/31 14:38:45;;;;;;;2.60;2.40;;;;;;;38.83;21.09;97003.47;4980777;28;20207;-63
2022/07/31 14:41:33;;;;;;;1.93;1.80;;;;;;;35.85;23.50;96995.03;4989120;28;20665;-64
2022/07/31 14:44:21;;;;;;;2.10;2.00;;;;;;;32.32;27.12;97004.16;4971465;28;20234;-65
2022/07/31 14:47:08;;;;;;;1.93;1.83;;;;;;;30.46;29.67;97000.09;4995561;28;20631;-62
2022/07/31 14:49:37;;;;;;;2.90;2.23;;;;;;;30.00;32.66;97002.22;5003463;28;20299;-64